Terminal Aerodrome Forecast
Issued by NWS Mt. Holly, NJ

Current Version | Previous Version | Text Only | Print | Product List | Glossary On
Versions: 1 2 3 4 5 6 7 8 9 10 11 12 13 14 15 16 17 18 19 20 21 22 23 24 25 26 27 28 29 30
000
FTUS41 KPHI 071736
TAFPHL
TAF
KPHL 071736Z 0718/0824 23010G18KT P6SM SCT040
     FM080000 22006KT P6SM SCT250
     FM081000 25008KT P6SM BKN100
     FM081600 25010KT P6SM SCT040 BKN060
     FM081800 25010KT P6SM SHRA OVC040=

USA.gov is the U.S. government's official web portal to all federal, state and local government web resources and services.